Time;durP1;ratioP1;P1;durP2;ratioP2;P2;SDS_P1;SDS_P2;PMS_P1;PMS_P2;Temp;Humidity;BMP_temperature;BMP_pressure;BME280_temperature;BME280_humidity;BME280_pressure;Samples;Min_cycle;Max_cycle;Signal;HPM_P1;HPM_P2
2023/08/11 00:01:37;;;;;;;6.75;4.53;;;14.10;99.90;;;;;;7275722;32;20586;-55
2023/08/11 00:05:39;;;;;;;8.23;5.78;;;14.10;99.90;;;;;;7266436;32;20136;-57
2023/08/11 00:09:41;;;;;;;9.90;5.25;;;14.00;99.90;;;;;;7270502;32;20660;-56
2023/08/11 00:13:43;;;;;;;9.15;4.95;;;14.00;99.90;;;;;;7267711;32;20669;-56
2023/08/11 00:17:45;;;;;;;7.87;4.97;;;14.00;99.90;;;;;;7276161;32;20116;-56
2023/08/11 00:21:46;;;;;;;8.70;4.72;;;14.00;99.90;;;;;;7273696;32;20698;-56
2023/08/11 00:25:48;;;;;;;9.02;5.18;;;14.00;99.90;;;;;;7269254;32;20128;-56
2023/08/11 00:29:50;;;;;;;6.28;4.80;;;14.00;99.90;;;;;;7273045;32;20107;-56
2023/08/11 00:33:52;;;;;;;7.65;5.15;;;13.90;99.90;;;;;;7268920;32;20191;-56
2023/08/11 00:37:53;;;;;;;8.75;4.72;;;13.90;99.90;;;;;;7273378;32;20203;-56
2023/08/11 00:41:55;;;;;;;6.78;5.62;;;13.90;99.90;;;;;;7272866;32;20214;-54
2023/08/11 00:45:59;;;;;;;5.78;5.15;;;13.80;99.90;;;;;;7257449;32;20177;-54
2023/08/11 00:50:03;;;;;;;6.12;5.00;;;13.90;99.90;;;;;;7264672;32;20143;-54
2023/08/11 00:54:06;;;;;;;6.78;4.70;;;13.80;99.90;;;;;;7267902;32;20203;-56
2023/08/11 00:58:08;;;;;;;5.97;5.03;;;13.80;99.90;;;;;;7267400;32;20113;-56
2023/08/11 01:02:11;;;;;;;5.18;4.35;;;13.70;99.90;;;;;;7270559;32;20108;-56
2023/08/11 01:06:21;;;;;;;7.03;4.53;;;13.80;99.90;;;;;;7270695;32;20116;-56
2023/08/11 01:10:39;;;;;;;5.80;4.78;;;13.70;99.90;;;;;;7266058;32;20778;-56
2023/08/11 01:15:00;;;;;;;8.80;5.37;;;13.70;99.90;;;;;;7265707;32;20216;-56
2023/08/11 01:19:03;;;;;;;6.95;4.30;;;13.70;99.90;;;;;;7267872;32;20104;-56
2023/08/11 01:23:06;;;;;;;7.50;4.60;;;13.70;99.90;;;;;;7269603;32;20768;-56
2023/08/11 01:27:09;;;;;;;4.55;4.10;;;13.70;99.90;;;;;;7261621;32;20377;-55
2023/08/11 01:31:10;;;;;;;5.22;4.40;;;13.60;99.90;;;;;;7272809;32;20260;-56
2023/08/11 01:35:13;;;;;;;7.22;4.70;;;13.70;99.90;;;;;;7272782;32;20198;-57
2023/08/11 01:39:27;;;;;;;6.45;4.07;;;13.60;99.90;;;;;;7267730;32;20132;-56
2023/08/11 01:43:29;;;;;;;10.02;4.80;;;13.60;99.90;;;;;;7266875;32;20158;-56
2023/08/11 01:47:32;;;;;;;7.60;4.15;;;13.60;99.90;;;;;;7266173;32;20120;-56
2023/08/11 01:51:33;;;;;;;7.82;4.30;;;13.60;99.90;;;;;;7271057;32;20629;-56
2023/08/11 01:55:35;;;;;;;6.85;4.00;;;13.50;99.90;;;;;;7265012;32;20135;-57
2023/08/11 01:59:37;;;;;;;7.72;4.35;;;13.60;99.90;;;;;;7267173;32;20326;-56
2023/08/11 02:03:40;;;;;;;9.30;5.20;;;13.60;99.90;;;;;;7268740;32;20161;-56
2023/08/11 02:07:42;;;;;;;6.18;3.90;;;13.50;99.90;;;;;;7271097;32;20146;-56
2023/08/11 02:11:44;;;;;;;5.22;4.10;;;13.50;99.90;;;;;;7269450;32;20253;-57
2023/08/11 02:15:46;;;;;;;6.40;4.40;;;13.40;99.90;;;;;;7263501;32;20124;-56
2023/08/11 02:19:48;;;;;;;4.47;3.92;;;13.30;99.90;;;;;;7269552;32;20178;-56
2023/08/11 02:23:49;;;;;;;8.30;4.28;;;13.40;99.90;;;;;;7267524;32;20536;-56
2023/08/11 02:27:51;;;;;;;8.18;4.00;;;13.40;99.90;;;;;;7269963;32;20603;-56
2023/08/11 02:31:53;;;;;;;5.28;3.83;;;13.30;99.90;;;;;;7265610;32;20156;-56
2023/08/11 02:35:55;;;;;;;6.95;4.30;;;13.30;99.90;;;;;;7268422;32;20227;-56
2023/08/11 02:39:56;;;;;;;6.05;4.75;;;13.30;99.90;;;;;;7267784;32;20108;-56
2023/08/11 02:43:58;;;;;;;6.37;4.15;;;13.30;99.90;;;;;;7264106;32;20777;-56
2023/08/11 02:48:00;;;;;;;7.47;4.03;;;13.30;99.90;;;;;;7269721;32;20821;-57
2023/08/11 02:52:02;;;;;;;8.85;4.37;;;13.30;99.90;;;;;;7268006;32;20195;-56
2023/08/11 02:56:07;;;;;;;5.30;4.15;;;13.30;99.90;;;;;;7270642;32;20664;-56
2023/08/11 03:00:13;;;;;;;6.43;4.43;;;13.20;99.90;;;;;;7264294;32;20128;-57
2023/08/11 03:04:16;;;;;;;6.70;4.07;;;13.20;99.90;;;;;;7266666;32;20382;-56
2023/08/11 03:08:17;;;;;;;8.57;4.43;;;13.10;99.90;;;;;;7268668;32;20291;-56
2023/08/11 03:12:19;;;;;;;6.95;4.43;;;13.20;99.90;;;;;;7266091;32;20499;-58
2023/08/11 03:16:22;;;;;;;7.07;4.03;;;13.10;99.90;;;;;;7262262;32;20150;-57
2023/08/11 03:20:24;;;;;;;8.27;4.07;;;13.00;99.90;;;;;;7267581;32;20104;-56
2023/08/11 03:24:26;;;;;;;8.30;4.12;;;13.00;99.90;;;;;;7273178;32;20113;-56
2023/08/11 03:28:27;;;;;;;6.90;4.00;;;13.00;99.90;;;;;;7268388;32;20454;-56
2023/08/11 03:32:29;;;;;;;9.63;4.30;;;13.00;99.90;;;;;;7258861;32;20547;-56
2023/08/11 03:36:31;;;;;;;7.82;4.30;;;13.00;99.90;;;;;;7259862;32;20108;-56
2023/08/11 03:40:33;;;;;;;6.50;4.05;;;12.90;99.90;;;;;;7264332;32;20112;-56
2023/08/11 03:44:34;;;;;;;10.18;4.78;;;12.90;99.90;;;;;;7263183;32;20219;-56
2023/08/11 03:48:36;;;;;;;7.35;4.60;;;12.90;99.90;;;;;;7260744;32;20175;-56
2023/08/11 03:52:38;;;;;;;7.05;4.40;;;12.90;99.90;;;;;;7274839;32;20181;-57
2023/08/11 03:56:40;;;;;;;7.20;4.55;;;13.00;99.90;;;;;;7272458;32;20137;-56
2023/08/11 04:00:42;;;;;;;7.20;4.53;;;12.90;99.90;;;;;;7273655;32;20176;-56
2023/08/11 04:04:45;;;;;;;7.85;4.20;;;12.80;99.90;;;;;;7270816;32;20113;-57
2023/08/11 04:08:47;;;;;;;12.25;4.45;;;12.80;99.90;;;;;;7276820;32;20120;-55
2023/08/11 04:12:48;;;;;;;5.35;4.10;;;12.80;99.90;;;;;;7266120;32;20177;-56
2023/08/11 04:16:50;;;;;;;7.65;3.75;;;12.80;99.90;;;;;;7269956;32;20526;-56
2023/08/11 04:20:52;;;;;;;7.75;4.15;;;12.80;99.90;;;;;;7267156;32;20298;-56
2023/08/11 04:24:54;;;;;;;9.52;4.15;;;12.80;99.90;;;;;;7273177;32;20105;-56
2023/08/11 04:28:55;;;;;;;5.90;3.80;;;12.80;99.90;;;;;;7275081;32;20108;-56
2023/08/11 04:32:57;;;;;;;7.57;4.15;;;12.80;99.90;;;;;;7271402;32;20127;-57
2023/08/11 04:37:00;;;;;;;6.85;4.10;;;12.80;99.90;;;;;;7269948;32;20120;-56
2023/08/11 04:41:05;;;;;;;10.48;4.18;;;12.80;99.90;;;;;;7268993;32;20621;-58
2023/08/11 04:45:08;;;;;;;7.47;4.05;;;12.80;99.90;;;;;;7280414;32;20117;-56
2023/08/11 04:49:10;;;;;;;9.07;4.30;;;12.90;99.90;;;;;;7266816;32;20104;-57
2023/08/11 04:53:12;;;;;;;8.82;3.58;;;13.00;99.90;;;;;;7271162;32;20116;-56
2023/08/11 04:57:14;;;;;;;10.85;3.47;;;13.20;99.90;;;;;;7267343;32;20217;-57
2023/08/11 05:01:16;;;;;;;7.55;4.07;;;13.30;99.90;;;;;;7270815;32;20812;-57
2023/08/11 05:05:19;;;;;;;3.55;2.72;;;13.80;99.90;;;;;;7252090;32;20112;-57
2023/08/11 05:09:21;;;;;;;9.90;3.03;;;14.30;99.90;;;;;;7271012;32;20760;-57
2023/08/11 05:13:23;;;;;;;5.80;2.58;;;14.90;99.90;;;;;;7269762;32;20541;-57
2023/08/11 05:17:24;;;;;;;8.35;2.70;;;15.30;99.90;;;;;;7271952;32;20192;-57
2023/08/11 05:21:26;;;;;;;5.78;2.33;;;15.30;99.90;;;;;;7275482;32;20177;-56
2023/08/11 05:25:28;;;;;;;4.37;2.50;;;15.20;99.90;;;;;;7274199;32;20108;-57
2023/08/11 05:29:30;;;;;;;6.55;2.72;;;15.30;99.90;;;;;;7272349;32;20637;-58
2023/08/11 05:33:32;;;;;;;5.12;2.30;;;15.30;99.90;;;;;;7270940;32;20165;-58
2023/08/11 05:37:37;;;;;;;4.20;2.00;;;15.30;99.90;;;;;;7267706;32;20175;-57
2023/08/11 05:41:38;;;;;;;4.93;1.92;;;15.40;99.90;;;;;;7269939;32;20462;-56
2023/08/11 05:45:40;;;;;;;5.15;2.50;;;15.60;99.90;;;;;;7272205;32;20139;-56
2023/08/11 05:49:42;;;;;;;4.35;2.30;;;15.70;99.90;;;;;;7272698;32;20139;-57
2023/08/11 05:53:44;;;;;;;3.35;2.17;;;15.80;99.90;;;;;;7274303;32;20168;-57
2023/08/11 05:57:46;;;;;;;5.32;1.90;;;15.90;99.90;;;;;;7264239;32;20100;-58
2023/08/11 06:01:48;;;;;;;4.05;1.80;;;16.00;99.90;;;;;;7270640;32;20121;-57
2023/08/11 06:05:50;;;;;;;7.43;2.00;;;16.10;99.90;;;;;;7261223;32;20138;-57
2023/08/11 06:09:51;;;;;;;3.90;2.00;;;16.30;99.90;;;;;;7271411;32;20264;-57
2023/08/11 06:13:53;;;;;;;4.78;2.55;;;16.40;99.90;;;;;;7275616;32;20138;-58
2023/08/11 06:17:55;;;;;;;9.50;2.10;;;16.40;99.90;;;;;;7273172;32;20151;-57
2023/08/11 06:21:59;;;;;;;6.93;2.12;;;16.50;99.90;;;;;;7274071;32;20135;-57
2023/08/11 06:26:01;;;;;;;3.62;1.90;;;16.50;99.90;;;;;;7271639;32;20317;-57
2023/08/11 06:30:05;;;;;;;5.50;1.77;;;16.70;99.90;;;;;;7272154;32;20865;-58
2023/08/11 06:34:07;;;;;;;4.57;2.12;;;16.70;99.90;;;;;;7268491;32;20112;-57
2023/08/11 06:38:10;;;;;;;4.45;1.62;;;16.70;99.90;;;;;;7276359;32;20222;-55
2023/08/11 06:42:11;;;;;;;3.42;1.98;;;16.80;99.90;;;;;;7274684;32;20108;-55
2023/08/11 06:46:14;;;;;;;5.22;2.30;;;16.90;99.90;;;;;;7267874;32;20281;-55
2023/08/11 06:50:17;;;;;;;8.43;2.20;;;17.10;99.90;;;;;;7274935;32;20120;-56
2023/08/11 06:54:18;;;;;;;6.70;1.92;;;17.20;99.90;;;;;;7266991;32;20197;-55
2023/08/11 06:58:20;;;;;;;3.53;2.03;;;17.30;99.90;;;;;;7263971;32;20575;-56
2023/08/11 07:02:26;;;;;;;3.22;1.90;;;17.50;99.90;;;;;;7269574;32;20432;-56
2023/08/11 07:06:28;;;;;;;3.37;1.67;;;17.80;99.90;;;;;;7260176;32;20455;-56
2023/08/11 07:10:30;;;;;;;4.53;1.80;;;17.80;99.90;;;;;;7265058;32;20133;-55
2023/08/11 07:14:32;;;;;;;5.62;2.20;;;18.00;99.90;;;;;;7264290;32;20548;-56
2023/08/11 07:18:33;;;;;;;2.97;1.80;;;18.20;99.90;;;;;;7256820;32;20127;-57
2023/08/11 07:22:35;;;;;;;2.80;1.77;;;18.40;99.90;;;;;;7259446;32;20135;-56
2023/08/11 07:26:37;;;;;;;3.22;1.60;;;18.60;99.90;;;;;;7270718;32;20249;-57
2023/08/11 07:30:39;;;;;;;4.05;1.95;;;18.90;99.90;;;;;;7273348;32;20109;-56
2023/08/11 07:34:40;;;;;;;7.45;2.40;;;18.90;99.90;;;;;;7277114;32;20481;-56
2023/08/11 07:38:43;;;;;;;2.97;1.80;;;19.10;99.90;;;;;;7274798;32;20486;-56
2023/08/11 07:42:44;;;;;;;5.47;1.90;;;19.20;99.90;;;;;;7272437;32;20251;-56
2023/08/11 07:46:46;;;;;;;5.93;2.00;;;19.30;99.90;;;;;;7277867;32;20763;-57
2023/08/11 07:50:48;;;;;;;3.92;1.70;;;19.20;99.90;;;;;;7266874;32;20537;-55
2023/08/11 07:54:50;;;;;;;5.93;1.80;;;19.20;99.90;;;;;;7270344;32;20684;-56
2023/08/11 07:58:53;;;;;;;4.37;1.83;;;19.50;99.90;;;;;;7267770;32;20164;-55
2023/08/11 08:02:55;;;;;;;5.78;1.92;;;19.60;99.90;;;;;;7274150;32;20120;-56
2023/08/11 08:06:57;;;;;;;4.20;2.08;;;19.50;99.90;;;;;;7272797;32;20639;-56
2023/08/11 08:10:58;;;;;;;7.60;2.30;;;19.70;99.90;;;;;;7272640;32;20253;-57
2023/08/11 08:15:00;;;;;;;4.03;1.90;;;19.70;99.90;;;;;;7270844;32;20325;-57
2023/08/11 08:19:02;;;;;;;4.75;2.12;;;20.00;99.90;;;;;;7272523;32;20180;-56
2023/08/11 08:23:04;;;;;;;5.47;1.83;;;20.10;99.90;;;;;;7270257;32;20249;-57
2023/08/11 08:27:05;;;;;;;6.55;2.25;;;20.30;99.90;;;;;;7269172;32;20144;-56
2023/08/11 08:31:08;;;;;;;5.20;2.12;;;20.60;99.90;;;;;;7270822;32;20555;-56
2023/08/11 08:35:10;;;;;;;5.90;1.90;;;20.90;99.90;;;;;;7269800;32;20179;-56
2023/08/11 08:39:12;;;;;;;3.78;1.62;;;21.80;99.90;;;;;;7269233;32;20225;-57
2023/08/11 08:43:16;;;;;;;4.70;1.75;;;22.60;99.90;;;;;;7284172;32;20131;-57
2023/08/11 08:47:20;;;;;;;4.87;1.98;;;23.00;99.90;;;;;;7272055;32;20207;-56
2023/08/11 08:51:22;;;;;;;2.87;1.50;;;24.70;99.90;;;;;;7271065;32;20133;-57
2023/08/11 08:55:24;;;;;;;4.43;1.92;;;26.70;99.90;;;;;;7268507;32;20165;-57
2023/08/11 08:59:26;;;;;;;5.25;1.90;;;28.30;99.90;;;;;;7269160;32;20651;-56
2023/08/11 09:03:31;;;;;;;5.03;1.60;;;29.30;99.90;;;;;;7277276;32;20135;-57
2023/08/11 09:07:33;;;;;;;4.03;1.73;;;30.20;99.80;;;;;;7275263;32;20135;-55
2023/08/11 09:11:35;;;;;;;5.15;1.60;;;31.20;98.00;;;;;;7276871;32;20176;-56
2023/08/11 09:15:36;;;;;;;2.97;1.73;;;31.60;94.70;;;;;;7269123;32;20139;-56
2023/08/11 09:19:42;;;;;;;4.65;1.80;;;31.80;93.30;;;;;;7277885;32;20154;-56
2023/08/11 09:23:44;;;;;;;2.47;1.75;;;31.90;94.90;;;;;;7276934;32;20132;-54
2023/08/11 09:27:50;;;;;;;4.45;1.65;;;32.00;92.60;;;;;;7276643;32;20966;-53
2023/08/11 09:31:55;;;;;;;3.30;1.75;;;32.30;91.70;;;;;;7270513;32;20270;-55
2023/08/11 09:35:58;;;;;;;5.83;1.83;;;31.80;88.50;;;;;;7273504;32;20243;-56
2023/08/11 09:40:03;;;;;;;3.92;1.75;;;31.50;89.50;;;;;;7273448;32;20530;-56
2023/08/11 09:44:06;;;;;;;3.40;2.05;;;31.30;92.50;;;;;;7274565;32;20108;-56
2023/08/11 09:48:08;;;;;;;4.32;1.90;;;31.10;92.30;;;;;;7274266;32;20176;-57
2023/08/11 09:52:12;;;;;;;6.82;1.98;;;30.70;88.50;;;;;;7272420;32;20597;-55
2023/08/11 09:56:16;;;;;;;3.75;2.00;;;30.50;91.20;;;;;;7277078;32;20444;-56
2023/08/11 10:00:19;;;;;;;4.00;2.10;;;30.30;91.50;;;;;;7276019;32;20173;-56
2023/08/11 10:04:43;;;;;;;3.92;1.65;;;30.10;97.20;;;;;;7279434;32;20833;-56
2023/08/11 10:08:47;;;;;;;4.93;1.90;;;30.30;94.30;;;;;;7272951;32;20579;-55
2023/08/11 10:12:58;;;;;;;3.47;1.90;;;30.30;91.20;;;;;;7274984;32;20124;-56
2023/08/11 10:17:01;;;;;;;3.10;1.67;;;30.50;90.20;;;;;;7271321;32;20116;-55
2023/08/11 10:21:03;;;;;;;3.62;1.87;;;30.60;96.10;;;;;;7270685;32;20144;-56
2023/08/11 10:25:06;;;;;;;6.25;1.70;;;30.60;92.30;;;;;;7271907;32;20117;-55
2023/08/11 10:29:11;;;;;;;7.68;2.00;;;30.60;94.90;;;;;;7275346;32;20120;-55
2023/08/11 10:33:13;;;;;;;3.78;2.10;;;30.70;96.20;;;;;;7271332;32;20140;-56
2023/08/11 10:37:15;;;;;;;3.92;2.17;;;30.50;93.20;;;;;;7271389;32;20120;-55
2023/08/11 10:41:21;;;;;;;3.92;1.62;;;30.30;96.40;;;;;;7262578;32;20112;-55
2023/08/11 10:45:24;;;;;;;3.42;2.05;;;30.40;93.60;;;;;;7265278;32;20278;-55
2023/08/11 10:49:32;;;;;;;4.30;2.60;;;30.30;96.10;;;;;;7262806;32;20108;-56
2023/08/11 10:53:39;;;;;;;5.43;2.03;;;30.20;94.80;;;;;;7268123;32;20269;-55
2023/08/11 10:57:41;;;;;;;5.03;2.30;;;30.00;92.40;;;;;;7269798;32;20119;-55
2023/08/11 11:01:48;;;;;;;4.65;2.20;;;30.00;90.20;;;;;;7270487;32;20131;-55
2023/08/11 11:05:50;;;;;;;6.15;2.40;;;29.70;93.30;;;;;;7276614;32;20235;-55
2023/08/11 11:09:52;;;;;;;3.75;2.10;;;29.40;91.90;;;;;;7281633;32;20100;-56
2023/08/11 11:13:54;;;;;;;7.03;2.00;;;29.40;94.40;;;;;;7277565;32;20107;-55
2023/08/11 11:17:56;;;;;;;6.53;2.25;;;29.30;92.60;;;;;;7275696;32;20598;-56
2023/08/11 11:21:59;;;;;;;4.47;2.25;;;29.30;92.20;;;;;;7271813;32;20123;-55
2023/08/11 11:26:01;;;;;;;7.10;2.62;;;29.40;93.50;;;;;;7279566;32;20104;-55
2023/08/11 11:30:04;;;;;;;9.38;2.35;;;29.30;91.10;;;;;;7281264;32;20100;-55
2023/08/11 11:34:06;;;;;;;6.30;2.33;;;29.30;93.00;;;;;;7278018;32;20183;-56
2023/08/11 11:38:10;;;;;;;5.68;2.83;;;29.00;91.60;;;;;;7275175;32;20238;-55
2023/08/11 11:42:11;;;;;;;7.72;2.47;;;28.90;92.90;;;;;;7274808;32;20550;-55
2023/08/11 11:46:15;;;;;;;3.85;2.17;;;28.90;95.00;;;;;;7267373;32;20100;-56
2023/08/11 11:50:17;;;;;;;4.20;2.25;;;28.90;95.20;;;;;;7276048;32;20203;-55
2023/08/11 11:54:19;;;;;;;6.78;2.55;;;29.00;93.80;;;;;;7271781;32;20117;-56
2023/08/11 11:58:21;;;;;;;5.78;2.30;;;29.10;91.90;;;;;;7267189;32;20155;-55
2023/08/11 12:02:22;;;;;;;7.32;2.22;;;29.20;94.10;;;;;;7274955;32;20171;-56
2023/08/11 12:06:27;;;;;;;4.57;2.00;;;29.30;92.80;;;;;;7274388;32;20142;-56
2023/08/11 12:10:35;;;;;;;10.38;2.12;;;29.10;93.40;;;;;;7272190;32;20222;-56
2023/08/11 12:14:37;;;;;;;8.95;2.50;;;29.20;93.00;;;;;;7267316;32;20233;-55
2023/08/11 12:18:39;;;;;;;3.67;1.98;;;29.10;92.50;;;;;;7269286;32;20457;-56
2023/08/11 12:22:42;;;;;;;6.95;2.40;;;29.10;92.30;;;;;;7270220;32;20180;-56
2023/08/11 12:26:44;;;;;;;5.43;1.95;;;29.00;92.20;;;;;;7268963;32;20109;-56
2023/08/11 12:30:46;;;;;;;5.80;2.10;;;29.10;94.60;;;;;;7271736;32;20435;-56
2023/08/11 12:34:48;;;;;;;4.30;2.12;;;29.00;92.80;;;;;;7275434;32;20557;-55
2023/08/11 12:38:50;;;;;;;8.32;2.15;;;29.20;91.60;;;;;;7266153;32;20123;-56
2023/08/11 12:42:52;;;;;;;6.25;2.25;;;29.30;92.40;;;;;;7271401;32;20206;-56
2023/08/11 12:46:54;;;;;;;5.82;1.95;;;29.40;91.30;;;;;;7269401;32;20150;-57
2023/08/11 12:50:55;;;;;;;3.67;2.05;;;29.40;91.60;;;;;;7270022;32;20232;-57
2023/08/11 12:54:57;;;;;;;5.97;1.92;;;29.80;90.00;;;;;;7260498;32;20204;-57
2023/08/11 12:58:59;;;;;;;3.58;1.80;;;29.90;90.00;;;;;;7272142;32;20496;-57
2023/08/11 13:03:00;;;;;;;4.12;1.80;;;29.90;90.20;;;;;;7276994;32;20470;-57
2023/08/11 13:07:02;;;;;;;5.05;1.98;;;30.10;89.70;;;;;;7273477;32;20928;-56
2023/08/11 13:11:04;;;;;;;6.50;2.00;;;30.40;90.00;;;;;;7270700;32;20109;-57
2023/08/11 13:15:07;;;;;;;5.78;1.90;;;30.50;90.10;;;;;;7271705;32;20132;-57
2023/08/11 13:19:09;;;;;;;8.88;2.03;;;30.40;90.00;;;;;;7274251;32;20140;-57
2023/08/11 13:23:14;;;;;;;5.60;2.12;;;30.10;89.50;;;;;;7273158;32;20175;-59
2023/08/11 13:27:16;;;;;;;5.85;2.03;;;29.80;88.10;;;;;;7266554;32;20101;-57
2023/08/11 13:31:18;;;;;;;5.70;2.15;;;29.60;88.20;;;;;;7275783;32;20180;-57
2023/08/11 13:35:20;;;;;;;6.07;1.83;;;29.40;90.40;;;;;;7266796;32;20108;-57
2023/08/11 13:39:22;;;;;;;5.60;2.10;;;29.50;90.80;;;;;;7276027;32;20096;-57
2023/08/11 13:43:23;;;;;;;6.35;1.92;;;29.50;90.00;;;;;;7265702;32;20120;-57
2023/08/11 13:47:26;;;;;;;5.57;2.20;;;29.40;90.30;;;;;;7277246;32;20116;-57
2023/08/11 13:51:28;;;;;;;2.62;1.92;;;29.40;88.90;;;;;;7270346;32;20797;-57
2023/08/11 13:55:29;;;;;;;3.58;2.12;;;29.10;89.30;;;;;;7274478;32;20222;-57
2023/08/11 13:59:31;;;;;;;3.80;1.70;;;29.10;90.50;;;;;;7275399;32;20097;-57
2023/08/11 14:03:33;;;;;;;3.22;1.75;;;29.10;90.80;;;;;;7276728;32;20138;-57
2023/08/11 14:07:35;;;;;;;4.62;2.10;;;29.10;91.00;;;;;;7273550;32;20225;-58
2023/08/11 14:11:37;;;;;;;6.57;2.03;;;29.00;90.70;;;;;;7277824;32;20150;-57
2023/08/11 14:15:39;;;;;;;4.97;2.47;;;29.10;87.60;;;;;;7272893;32;20560;-57
2023/08/11 14:19:41;;;;;;;6.65;2.00;;;29.00;90.80;;;;;;7266509;32;20458;-58
2023/08/11 14:23:42;;;;;;;3.80;2.17;;;28.90;91.80;;;;;;7270211;32;20191;-57
2023/08/11 14:27:44;;;;;;;4.30;1.80;;;28.80;93.40;;;;;;7281823;32;20150;-57
2023/08/11 14:31:46;;;;;;;8.70;2.60;;;28.60;88.90;;;;;;7270476;32;20394;-58
2023/08/11 14:35:48;;;;;;;7.40;2.30;;;28.60;91.90;;;;;;7276298;32;20127;-58
2023/08/11 14:39:49;;;;;;;5.75;2.30;;;28.60;94.00;;;;;;7271059;32;20105;-58
2023/08/11 14:43:51;;;;;;;5.62;2.35;;;28.50;93.20;;;;;;7272212;32;20139;-57
2023/08/11 14:47:53;;;;;;;9.55;2.58;;;28.60;92.60;;;;;;7267890;32;20120;-57
2023/08/11 14:51:55;;;;;;;7.07;3.03;;;28.70;91.80;;;;;;7275715;32;20092;-57
2023/08/11 14:55:56;;;;;;;4.32;2.60;;;28.50;95.90;;;;;;7272728;32;20696;-57
2023/08/11 14:59:58;;;;;;;4.47;2.67;;;28.40;92.40;;;;;;7275596;32;20218;-57
2023/08/11 15:04:00;;;;;;;4.62;2.65;;;28.40;94.90;;;;;;7269262;32;20167;-56
2023/08/11 15:08:02;;;;;;;8.43;2.62;;;28.70;92.70;;;;;;7267947;32;20119;-57
2023/08/11 15:12:04;;;;;;;4.80;3.15;;;28.80;92.70;;;;;;7272932;32;20587;-57
2023/08/11 15:16:06;;;;;;;5.35;2.33;;;28.90;91.00;;;;;;7265966;32;20112;-57
2023/08/11 15:20:09;;;;;;;4.87;2.10;;;28.70;90.70;;;;;;7274211;32;20116;-57
2023/08/11 15:24:11;;;;;;;4.05;2.10;;;28.60;92.30;;;;;;7276345;32;20108;-57
2023/08/11 15:28:13;;;;;;;6.12;2.47;;;28.40;94.90;;;;;;7267270;32;20105;-57
2023/08/11 15:32:15;;;;;;;3.40;2.00;;;28.50;93.80;;;;;;7269764;32;20105;-57
2023/08/11 15:36:16;;;;;;;2.85;1.80;;;28.40;94.40;;;;;;7267687;32;20123;-57
2023/08/11 15:40:18;;;;;;;6.45;2.20;;;28.00;93.10;;;;;;7269580;32;20216;-57
2023/08/11 15:44:24;;;;;;;5.20;2.53;;;28.00;94.10;;;;;;7273257;32;20232;-57
2023/08/11 15:48:27;;;;;;;4.47;2.37;;;28.10;94.30;;;;;;7269885;32;20135;-56
2023/08/11 15:52:29;;;;;;;8.40;2.65;;;28.10;95.10;;;;;;7274057;32;20725;-57
2023/08/11 15:56:31;;;;;;;5.68;2.50;;;28.10;94.10;;;;;;7281381;32;20165;-57
2023/08/11 16:00:33;;;;;;;4.35;2.50;;;28.00;93.50;;;;;;7276699;32;20128;-56
2023/08/11 16:04:34;;;;;;;4.87;2.25;;;27.90;93.20;;;;;;7278095;32;20547;-57
2023/08/11 16:08:38;;;;;;;5.37;2.17;;;27.90;92.90;;;;;;7275272;32;20454;-57
2023/08/11 16:12:40;;;;;;;3.12;1.98;;;27.70;94.50;;;;;;7279351;32;20454;-56
2023/08/11 16:16:41;;;;;;;4.30;2.40;;;27.90;94.40;;;;;;7279946;32;20182;-57
2023/08/11 16:20:43;;;;;;;4.20;2.35;;;27.70;93.90;;;;;;7278411;32;20112;-57
2023/08/11 16:24:45;;;;;;;3.10;2.22;;;27.80;94.00;;;;;;7272717;32;20234;-57
2023/08/11 16:28:47;;;;;;;5.87;2.35;;;27.70;94.40;;;;;;7267247;32;20122;-57
2023/08/11 16:32:49;;;;;;;3.45;2.17;;;27.60;96.60;;;;;;7284673;32;20734;-56
2023/08/11 16:36:52;;;;;;;3.05;2.22;;;27.50;96.20;;;;;;7278338;32;20153;-56
2023/08/11 16:40:54;;;;;;;4.25;2.85;;;27.30;96.40;;;;;;7277657;32;20333;-54
2023/08/11 16:44:56;;;;;;;6.97;2.30;;;27.10;98.60;;;;;;7268910;32;20259;-57
2023/08/11 16:48:58;;;;;;;5.82;2.50;;;27.00;97.00;;;;;;7283396;32;20130;-57
2023/08/11 16:52:59;;;;;;;4.32;2.40;;;27.00;96.10;;;;;;7275522;32;20215;-58
2023/08/11 16:57:01;;;;;;;5.05;2.35;;;26.90;97.70;;;;;;7276681;32;20103;-57
2023/08/11 17:01:03;;;;;;;4.90;2.60;;;27.00;97.60;;;;;;7268811;32;20553;-57
2023/08/11 17:05:06;;;;;;;3.17;2.47;;;26.90;97.90;;;;;;7274919;32;20547;-57
2023/08/11 17:09:08;;;;;;;6.22;2.35;;;26.80;99.40;;;;;;7272235;32;20101;-56
2023/08/11 17:13:10;;;;;;;6.20;2.78;;;26.80;98.40;;;;;;7278385;32;20609;-57
2023/08/11 17:17:11;;;;;;;3.85;2.60;;;26.70;99.40;;;;;;7277595;32;20273;-56
2023/08/11 17:21:14;;;;;;;5.28;2.22;;;26.60;99.40;;;;;;7274803;32;20134;-57
2023/08/11 17:25:16;;;;;;;7.00;2.42;;;26.50;99.70;;;;;;7269734;32;20122;-58
2023/08/11 17:29:18;;;;;;;2.67;2.00;;;26.40;99.90;;;;;;7272284;32;20123;-57
2023/08/11 17:33:20;;;;;;;5.05;2.62;;;26.30;99.90;;;;;;7270217;32;20266;-57
2023/08/11 17:37:24;;;;;;;5.40;2.75;;;26.10;99.90;;;;;;7274868;32;20100;-57
2023/08/11 17:41:26;;;;;;;5.50;4.90;;;25.90;99.90;;;;;;7274695;32;20411;-57
2023/08/11 17:45:28;;;;;;;4.53;3.53;;;25.80;99.90;;;;;;7274303;32;20096;-57
2023/08/11 17:49:30;;;;;;;9.50;3.65;;;25.70;99.90;;;;;;7265364;32;20196;-58
2023/08/11 17:53:31;;;;;;;7.95;3.58;;;25.40;99.90;;;;;;7269862;32;20590;-58
2023/08/11 17:57:34;;;;;;;6.60;2.75;;;25.20;99.90;;;;;;7274231;32;20108;-57
2023/08/11 18:01:37;;;;;;;7.28;2.92;;;24.90;99.90;;;;;;7273541;32;20350;-56
2023/08/11 18:05:39;;;;;;;4.18;3.22;;;24.60;99.90;;;;;;7269830;32;20138;-56
2023/08/11 18:09:40;;;;;;;12.40;3.55;;;24.50;99.90;;;;;;7272447;32;20214;-57
2023/08/11 18:13:42;;;;;;;6.50;4.18;;;24.40;99.90;;;;;;7270586;32;20134;-56
2023/08/11 18:17:44;;;;;;;11.12;7.50;;;24.30;99.90;;;;;;7269217;32;20125;-56
2023/08/11 18:21:46;;;;;;;19.15;8.70;;;24.00;99.90;;;;;;7272791;32;20192;-56
2023/08/11 18:25:48;;;;;;;18.87;14.35;;;23.80;99.90;;;;;;7267267;32;20099;-56
2023/08/11 18:29:50;;;;;;;23.35;15.80;;;23.70;99.90;;;;;;7275182;32;20271;-57
2023/08/11 18:33:52;;;;;;;17.48;12.95;;;23.50;99.90;;;;;;7268292;32;20891;-56
2023/08/11 18:37:54;;;;;;;15.50;9.50;;;23.20;99.90;;;;;;7273892;32;20122;-56
2023/08/11 18:41:56;;;;;;;10.57;6.82;;;23.20;99.90;;;;;;7274115;32;20105;-56
2023/08/11 18:46:01;;;;;;;9.18;5.97;;;23.10;99.90;;;;;;7261937;32;20116;-56
2023/08/11 18:50:04;;;;;;;8.02;5.40;;;23.00;99.90;;;;;;7270752;32;20809;-56
2023/08/11 18:54:06;;;;;;;8.25;5.80;;;22.80;99.90;;;;;;7268895;32;20108;-59
2023/08/11 18:58:07;;;;;;;8.32;6.07;;;22.60;99.90;;;;;;7272352;32;20198;-55
2023/08/11 19:02:09;;;;;;;9.18;5.70;;;22.40;99.90;;;;;;7270655;32;20092;-56
2023/08/11 19:06:12;;;;;;;7.30;5.57;;;22.20;99.90;;;;;;7267555;32;20225;-56
2023/08/11 19:10:14;;;;;;;9.30;5.22;;;22.10;99.90;;;;;;7270493;32;20527;-55
2023/08/11 19:14:16;;;;;;;9.77;4.95;;;22.00;99.90;;;;;;7265412;32;20096;-54
2023/08/11 19:18:18;;;;;;;9.25;5.60;;;21.90;99.90;;;;;;7264952;32;20173;-54
2023/08/11 19:22:22;;;;;;;9.40;5.10;;;21.80;99.90;;;;;;7265600;32;20115;-55
2023/08/11 19:26:24;;;;;;;9.63;4.72;;;21.70;99.90;;;;;;7277156;32;20559;-56
2023/08/11 19:30:26;;;;;;;8.65;4.57;;;21.70;99.90;;;;;;7275270;32;20213;-55
2023/08/11 19:34:27;;;;;;;11.55;4.87;;;21.60;99.90;;;;;;7271596;32;20503;-55
2023/08/11 19:38:29;;;;;;;8.65;4.85;;;21.40;99.90;;;;;;7274894;32;20210;-56
2023/08/11 19:42:31;;;;;;;6.07;4.22;;;21.30;99.90;;;;;;7276144;32;20104;-55
2023/08/11 19:46:33;;;;;;;10.65;4.18;;;21.20;99.90;;;;;;7276198;32;20467;-54
2023/08/11 19:50:35;;;;;;;10.45;4.65;;;21.10;99.90;;;;;;7274841;32;20093;-55
2023/08/11 19:54:36;;;;;;;9.75;4.43;;;21.10;99.90;;;;;;7269981;32;20161;-54
2023/08/11 19:58:38;;;;;;;10.07;4.12;;;21.10;99.90;;;;;;7276843;32;20181;-54
2023/08/11 20:02:40;;;;;;;7.25;4.62;;;21.00;99.90;;;;;;7276993;32;20253;-55
2023/08/11 20:06:42;;;;;;;10.40;4.40;;;20.90;99.90;;;;;;7267151;32;20115;-55
2023/08/11 20:10:49;;;;;;;10.70;4.85;;;20.90;99.90;;;;;;7273662;32;20123;-55
2023/08/11 20:14:50;;;;;;;10.85;4.62;;;20.90;99.90;;;;;;7271615;32;20234;-55
2023/08/11 20:18:52;;;;;;;11.73;4.72;;;20.90;99.90;;;;;;7271137;32;20210;-56
2023/08/11 20:22:54;;;;;;;6.87;4.30;;;20.90;99.90;;;;;;7274259;32;20187;-55
2023/08/11 20:26:56;;;;;;;9.23;3.87;;;20.80;99.90;;;;;;7275522;32;20101;-55
2023/08/11 20:31:01;;;;;;;12.73;4.03;;;20.80;99.90;;;;;;7272973;32;20276;-55
2023/08/11 20:35:04;;;;;;;9.57;4.35;;;20.90;99.90;;;;;;7272567;32;20111;-55
2023/08/11 20:39:05;;;;;;;9.55;4.45;;;20.90;99.90;;;;;;7264939;32;20142;-54
2023/08/11 20:43:07;;;;;;;7.05;3.60;;;20.90;99.90;;;;;;7262155;32;20123;-54
2023/08/11 20:47:09;;;;;;;7.82;4.22;;;20.80;99.90;;;;;;7270082;32;20124;-56
2023/08/11 20:51:11;;;;;;;6.18;4.15;;;20.80;99.90;;;;;;7272192;32;20154;-56
2023/08/11 20:55:13;;;;;;;8.40;4.32;;;20.90;99.90;;;;;;7273194;32;20117;-56
2023/08/11 20:59:15;;;;;;;8.93;4.15;;;20.80;99.90;;;;;;7274338;32;20124;-54